New Hartford, Iowa
Current Conditions -  °F | °C
As of 7:54 PM on Saturday 25 Oct 2014 (Local Time) from KALO Reporting Station
Clear Clear  
Wind Chill: 47°   Ceiling: Unl
Heat Index: 49°   Visibility: 10mi
Dew Point: 35°   Wind: 6mph
Humidity: 59%   Direction: 320°NW
Pressure: 30.05"   Gusts: NA
Location:  42.57°N, 92.62°W
Report Text: KALO 260054Z 32005KT 10SM CLR 09/02 A3005 RMK AO2 SLP179 T00940017
Loading
Personal Weather Stations






























Interactive Weather Map
Tropical Storm Tracking
New forecast layout! Learn more

10-Day Weather Forecast

Advertisements
Track Severe Weather on mobile